CUB020 MUCU-MUHA
Flight info
| Callsign | CUB020 |
|---|---|
| Flight time | N/A |
| Altitude | 30000 |
| Route | HOLGU2 UHG DCT UCM DCT UVC DCT UHA |
| Aircraft | F28/M-SDFIRWY/H |
Departure
| Time | 2026-04-14 05:31 |
|---|---|
| Airport | Antonio Maceo International Airport (MUCU) |
Arrival
| Time | N/A |
|---|---|
| Airport | José Martí International Airport (MUHA) |
| Time | Latitude | Longitude | Altitude | Speed | Heading |
|---|---|---|---|---|---|
| 2026-04-14 05:07 | 19.97188 | -75.84036 | 232 ft | 0 kts | 359° |
| 2026-04-14 05:22 | 19.97179 | -75.84036 | 241 ft | 4 kts | 345° |
| 2026-04-14 05:22 | 19.97171 | -75.84017 | 235 ft | 2 kts | 262° |
| 2026-04-14 05:23 | 19.97172 | -75.84011 | 239 ft | 0 kts | 262° |
| 2026-04-14 05:25 | 19.97171 | -75.84017 | 235 ft | 4 kts | 258° |
| 2026-04-14 05:25 | 19.97140 | -75.84029 | 239 ft | 8 kts | 170° |
| 2026-04-14 05:26 | 19.97056 | -75.84024 | 237 ft | 16 kts | 179° |
| 2026-04-14 05:26 | 19.96980 | -75.84094 | 240 ft | 17 kts | 266° |
| 2026-04-14 05:26 | 19.96978 | -75.84245 | 238 ft | 24 kts | 271° |
| 2026-04-14 05:26 | 19.96981 | -75.84452 | 236 ft | 31 kts | 271° |
| 2026-04-14 05:27 | 19.96981 | -75.84702 | 222 ft | 36 kts | 268° |
| 2026-04-14 05:27 | 19.96974 | -75.84967 | 213 ft | 35 kts | 269° |
| 2026-04-14 05:27 | 19.96974 | -75.85208 | 213 ft | 29 kts | 266° |
| 2026-04-14 05:27 | 19.96956 | -75.85383 | 215 ft | 20 kts | 267° |
| 2026-04-14 05:28 | 19.96978 | -75.85447 | 224 ft | 1 kts | 48° |
| 2026-04-14 05:28 | 19.96977 | -75.85431 | 219 ft | 3 kts | 105° |
| 2026-04-14 05:28 | 19.96970 | -75.85368 | 221 ft | 7 kts | 88° |
| 2026-04-14 05:28 | 19.96970 | -75.85367 | 221 ft | 0 kts | 88° |
| 2026-04-14 05:30 | 19.96970 | -75.85359 | 221 ft | 0 kts | 88° |
| 2026-04-14 05:30 | 19.96973 | -75.85185 | 214 ft | 62 kts | 89° |
| 2026-04-14 05:30 | 19.96981 | -75.84437 | 239 ft | 137 kts | 89° |
| 2026-04-14 05:31 | 19.96973 | -75.83218 | 496 ft | 185 kts | 90° |
| 2026-04-14 05:31 | 19.96953 | -75.81742 | 1113 ft | 212 kts | 89° |
| 2026-04-14 05:31 | 19.96789 | -75.80092 | 1403 ft | 235 kts | 102° |
| 2026-04-14 05:31 | 19.96334 | -75.78391 | 1697 ft | 242 kts | 106° |
| 2026-04-14 05:32 | 19.95786 | -75.76694 | 1997 ft | 243 kts | 106° |
| 2026-04-14 05:32 | 19.95220 | -75.75022 | 2279 ft | 242 kts | 106° |
| 2026-04-14 05:32 | 19.94634 | -75.73334 | 2866 ft | 239 kts | 106° |
| 2026-04-14 05:32 | 19.94062 | -75.71700 | 3477 ft | 240 kts | 106° |
| 2026-04-14 05:33 | 19.93482 | -75.70020 | 3969 ft | 244 kts | 106° |
| 2026-04-14 05:33 | 19.92903 | -75.68310 | 4492 ft | 247 kts | 106° |
| 2026-04-14 05:33 | 19.92327 | -75.66569 | 5011 ft | 251 kts | 106° |
| 2026-04-14 05:34 | 19.91644 | -75.62954 | 6044 ft | 255 kts | 76° |
| 2026-04-14 05:34 | 19.92470 | -75.61299 | 6564 ft | 259 kts | 46° |
| 2026-04-14 05:34 | 19.93999 | -75.60315 | 7114 ft | 263 kts | 17° |
| 2026-04-14 05:34 | 19.95831 | -75.60146 | 7693 ft | 267 kts | 1° |
| 2026-04-14 05:35 | 19.97704 | -75.60184 | 8296 ft | 270 kts | 360° |
| 2026-04-14 05:35 | 19.99567 | -75.60550 | 8915 ft | 274 kts | 345° |
| 2026-04-14 05:35 | 20.01375 | -75.61174 | 9524 ft | 279 kts | 343° |
| 2026-04-14 05:35 | 20.03226 | -75.61836 | 10168 ft | 281 kts | 343° |
| 2026-04-14 05:36 | 20.05091 | -75.62481 | 10793 ft | 282 kts | 345° |
| 2026-04-14 05:36 | 20.06889 | -75.63340 | 11419 ft | 287 kts | 330° |
| 2026-04-14 05:36 | 20.08527 | -75.64564 | 12040 ft | 289 kts | 326° |
| 2026-04-14 05:36 | 20.10132 | -75.65882 | 12662 ft | 292 kts | 325° |
| 2026-04-14 05:37 | 20.11733 | -75.67230 | 13275 ft | 295 kts | 324° |
| 2026-04-14 05:37 | 20.13134 | -75.68842 | 13884 ft | 302 kts | 309° |
| 2026-04-14 05:37 | 20.14276 | -75.70742 | 14421 ft | 306 kts | 305° |
| 2026-04-14 05:37 | 20.15334 | -75.72713 | 14968 ft | 308 kts | 303° |
| 2026-04-14 05:38 | 20.16356 | -75.74724 | 15470 ft | 311 kts | 300° |
| 2026-04-14 05:38 | 20.16962 | -75.76942 | 15977 ft | 320 kts | 285° |
| 2026-04-14 05:38 | 20.17297 | -75.79304 | 16479 ft | 325 kts | 282° |
| 2026-04-14 05:38 | 20.17548 | -75.81700 | 16980 ft | 328 kts | 281° |
| 2026-04-14 05:39 | 20.18075 | -75.84029 | 17466 ft | 319 kts | 302° |
| 2026-04-14 05:39 | 20.19367 | -75.85865 | 17953 ft | 306 kts | 325° |
| 2026-04-14 05:39 | 20.21078 | -75.87203 | 18461 ft | 303 kts | 332° |
| 2026-04-14 05:39 | 20.22857 | -75.88418 | 18896 ft | 304 kts | 333° |
| 2026-04-14 05:40 | 20.24668 | -75.89626 | 19331 ft | 306 kts | 333° |
| 2026-04-14 05:40 | 20.26444 | -75.90823 | 19748 ft | 308 kts | 332° |
| 2026-04-14 05:40 | 20.28250 | -75.92071 | 20161 ft | 310 kts | 332° |
| 2026-04-14 05:40 | 20.30047 | -75.93346 | 20577 ft | 312 kts | 331° |
| 2026-04-14 05:41 | 20.31853 | -75.94647 | 20986 ft | 313 kts | 330° |
| 2026-04-14 05:41 | 20.33651 | -75.95972 | 21386 ft | 315 kts | 330° |
| 2026-04-14 05:41 | 20.35452 | -75.97314 | 21786 ft | 317 kts | 329° |
| 2026-04-14 05:41 | 20.37270 | -75.98671 | 22177 ft | 319 kts | 329° |
| 2026-04-14 05:42 | 20.39097 | -76.00033 | 22566 ft | 320 kts | 329° |
| 2026-04-14 05:42 | 20.40931 | -76.01397 | 22953 ft | 322 kts | 329° |
| 2026-04-14 05:42 | 20.42750 | -76.02745 | 23320 ft | 324 kts | 329° |
| 2026-04-14 05:42 | 20.44611 | -76.04117 | 23685 ft | 326 kts | 329° |
| 2026-04-14 05:43 | 20.46473 | -76.05502 | 24001 ft | 327 kts | 329° |
| 2026-04-14 05:43 | 20.48333 | -76.06896 | 24322 ft | 327 kts | 329° |
| 2026-04-14 05:43 | 20.50203 | -76.08295 | 24640 ft | 328 kts | 328° |
| 2026-04-14 05:43 | 20.52079 | -76.09692 | 24945 ft | 329 kts | 328° |
| 2026-04-14 05:44 | 20.53961 | -76.11083 | 25258 ft | 330 kts | 328° |
| 2026-04-14 05:44 | 20.55852 | -76.12494 | 25561 ft | 331 kts | 328° |
| 2026-04-14 05:44 | 20.57736 | -76.13907 | 25859 ft | 332 kts | 328° |
| 2026-04-14 05:44 | 20.59631 | -76.15323 | 26148 ft | 333 kts | 328° |
| 2026-04-14 05:45 | 20.61534 | -76.16739 | 26442 ft | 334 kts | 328° |
| 2026-04-14 05:45 | 20.63445 | -76.18153 | 26731 ft | 334 kts | 328° |
| 2026-04-14 05:45 | 20.65335 | -76.19561 | 27005 ft | 335 kts | 327° |
| 2026-04-14 05:45 | 20.67247 | -76.20997 | 27280 ft | 336 kts | 327° |
| 2026-04-14 05:46 | 20.69164 | -76.22435 | 27545 ft | 337 kts | 327° |
| 2026-04-14 05:46 | 20.71089 | -76.23875 | 27809 ft | 338 kts | 327° |
| 2026-04-14 05:46 | 20.73023 | -76.25314 | 28068 ft | 339 kts | 327° |
| 2026-04-14 05:46 | 20.74967 | -76.26754 | 28328 ft | 340 kts | 327° |
| 2026-04-14 05:47 | 20.76908 | -76.28208 | 28566 ft | 341 kts | 326° |
| 2026-04-14 05:47 | 20.78845 | -76.29674 | 28804 ft | 342 kts | 325° |
| 2026-04-14 05:47 | 20.80727 | -76.31236 | 29041 ft | 343 kts | 322° |
| 2026-04-14 05:47 | 20.82557 | -76.32884 | 29274 ft | 344 kts | 321° |
| 2026-04-14 05:48 | 20.84334 | -76.34559 | 29495 ft | 345 kts | 320° |
| 2026-04-14 05:48 | 20.86144 | -76.36305 | 29720 ft | 346 kts | 319° |
| 2026-04-14 05:48 | 20.87914 | -76.38010 | 29935 ft | 347 kts | 320° |
| 2026-04-14 05:48 | 20.89744 | -76.39759 | 30069 ft | 350 kts | 317° |
| 2026-04-14 05:49 | 20.91163 | -76.41850 | 30108 ft | 360 kts | 297° |
| 2026-04-14 05:49 | 20.91973 | -76.44427 | 30120 ft | 370 kts | 290° |
| 2026-04-14 05:49 | 20.93405 | -76.49805 | 30104 ft | 380 kts | 291° |
| 2026-04-14 05:50 | 20.95202 | -76.55188 | 30098 ft | 388 kts | 295° |
| 2026-04-14 05:50 | 20.97285 | -76.60580 | 30087 ft | 395 kts | 296° |
| 2026-04-14 05:51 | 20.99457 | -76.66036 | 30081 ft | 401 kts | 296° |
| 2026-04-14 05:51 | 21.01629 | -76.71559 | 30080 ft | 403 kts | 296° |
| 2026-04-14 05:52 | 21.03806 | -76.77092 | 30079 ft | 403 kts | 296° |
| 2026-04-14 05:52 | 21.05975 | -76.82588 | 30075 ft | 403 kts | 296° |
| 2026-04-14 05:53 | 21.08133 | -76.88140 | 30078 ft | 404 kts | 296° |
| 2026-04-14 05:53 | 21.10294 | -76.93691 | 30076 ft | 404 kts | 296° |
| 2026-04-14 05:54 | 21.12451 | -76.99253 | 30073 ft | 404 kts | 296° |
| 2026-04-14 05:54 | 21.14605 | -77.04816 | 30073 ft | 404 kts | 296° |
| 2026-04-14 05:55 | 21.16758 | -77.10379 | 30075 ft | 404 kts | 295° |
| 2026-04-14 05:55 | 21.18912 | -77.15951 | 30075 ft | 405 kts | 295° |
| 2026-04-14 05:56 | 21.21056 | -77.21492 | 30077 ft | 405 kts | 295° |
| 2026-04-14 05:56 | 21.23214 | -77.27065 | 30075 ft | 405 kts | 295° |
| 2026-04-14 05:57 | 21.25376 | -77.32647 | 30075 ft | 405 kts | 295° |
| 2026-04-14 05:57 | 21.27549 | -77.38234 | 30080 ft | 406 kts | 295° |
| 2026-04-14 05:58 | 21.29728 | -77.43813 | 30079 ft | 406 kts | 295° |
| 2026-04-14 05:58 | 21.31897 | -77.49408 | 30084 ft | 406 kts | 295° |
| 2026-04-14 05:59 | 21.33316 | -77.53124 | 30087 ft | 406 kts | 295° |
| 2026-04-14 05:59 | 21.34688 | -77.56689 | 30100 ft | 407 kts | 295° |
| 2026-04-14 06:00 | 21.36832 | -77.62312 | 30105 ft | 407 kts | 295° |
| 2026-04-14 06:00 | 21.38984 | -77.67927 | 30113 ft | 407 kts | 295° |
| 2026-04-14 06:01 | 21.41131 | -77.73548 | 30118 ft | 407 kts | 295° |
| 2026-04-14 06:01 | 21.43289 | -77.79167 | 30120 ft | 407 kts | 296° |
| 2026-04-14 06:02 | 21.45771 | -77.84562 | 30123 ft | 406 kts | 300° |
| 2026-04-14 06:02 | 21.48448 | -77.89901 | 30127 ft | 406 kts | 301° |
| 2026-04-14 06:03 | 21.51154 | -77.95219 | 30112 ft | 406 kts | 301° |
| 2026-04-14 06:04 | 21.55139 | -78.03252 | 30106 ft | 406 kts | 300° |
| 2026-04-14 06:04 | 21.57795 | -78.08639 | 30098 ft | 407 kts | 300° |
| 2026-04-14 06:05 | 21.60435 | -78.13980 | 30089 ft | 407 kts | 300° |
| 2026-04-14 06:05 | 21.63101 | -78.19359 | 30087 ft | 408 kts | 300° |
| 2026-04-14 06:06 | 21.65776 | -78.24744 | 30087 ft | 408 kts | 300° |
| 2026-04-14 06:06 | 21.68416 | -78.30144 | 30082 ft | 408 kts | 300° |
| 2026-04-14 06:07 | 21.71063 | -78.35549 | 30088 ft | 408 kts | 299° |
| 2026-04-14 06:07 | 21.73267 | -78.40050 | 30088 ft | 409 kts | 300° |
| 2026-04-14 06:08 | 21.75915 | -78.45469 | 30089 ft | 409 kts | 300° |
| 2026-04-14 06:08 | 21.78564 | -78.50887 | 30088 ft | 409 kts | 299° |
| 2026-04-14 06:09 | 21.81210 | -78.56305 | 30095 ft | 409 kts | 299° |
| 2026-04-14 06:09 | 21.83854 | -78.61739 | 30096 ft | 409 kts | 299° |
| 2026-04-14 06:10 | 21.86501 | -78.67164 | 30094 ft | 410 kts | 299° |
| 2026-04-14 06:10 | 21.89134 | -78.72567 | 30095 ft | 410 kts | 299° |
| 2026-04-14 06:11 | 21.91791 | -78.78005 | 30099 ft | 410 kts | 299° |
| 2026-04-14 06:11 | 21.94456 | -78.83446 | 30097 ft | 410 kts | 299° |
| 2026-04-14 06:12 | 21.97124 | -78.88879 | 30101 ft | 410 kts | 299° |
| 2026-04-14 06:12 | 21.99787 | -78.94315 | 30101 ft | 410 kts | 299° |
| 2026-04-14 06:13 | 22.02419 | -78.99768 | 30104 ft | 410 kts | 299° |
| 2026-04-14 06:13 | 22.05038 | -79.05196 | 30105 ft | 410 kts | 299° |
| 2026-04-14 06:14 | 22.07678 | -79.10656 | 30109 ft | 411 kts | 298° |
| 2026-04-14 06:14 | 22.10313 | -79.16123 | 30108 ft | 411 kts | 298° |
| 2026-04-14 06:15 | 22.12952 | -79.21588 | 30106 ft | 411 kts | 298° |
| 2026-04-14 06:15 | 22.15580 | -79.27060 | 30110 ft | 411 kts | 298° |
| 2026-04-14 06:16 | 22.18217 | -79.32540 | 30113 ft | 411 kts | 298° |
| 2026-04-14 06:16 | 22.20852 | -79.38016 | 30111 ft | 411 kts | 298° |
| 2026-04-14 06:17 | 22.23477 | -79.43459 | 30117 ft | 411 kts | 298° |
| 2026-04-14 06:17 | 22.26120 | -79.48925 | 30119 ft | 411 kts | 298° |
| 2026-04-14 06:18 | 22.28775 | -79.54401 | 30119 ft | 411 kts | 298° |
| 2026-04-14 06:18 | 22.31425 | -79.59867 | 30121 ft | 411 kts | 298° |
| 2026-04-14 06:19 | 22.34017 | -79.65320 | 30122 ft | 411 kts | 298° |
| 2026-04-14 06:19 | 22.36638 | -79.70815 | 30125 ft | 411 kts | 298° |
| 2026-04-14 06:20 | 22.39260 | -79.76309 | 30124 ft | 411 kts | 298° |
| 2026-04-14 06:20 | 22.41874 | -79.81795 | 30122 ft | 411 kts | 298° |
| 2026-04-14 06:21 | 22.44486 | -79.87297 | 30126 ft | 411 kts | 298° |
| 2026-04-14 06:21 | 22.47083 | -79.92757 | 30124 ft | 411 kts | 298° |
| 2026-04-14 06:22 | 22.49518 | -79.98343 | 30121 ft | 411 kts | 294° |
| 2026-04-14 06:22 | 22.51678 | -80.04056 | 30126 ft | 411 kts | 292° |
| 2026-04-14 06:23 | 22.53750 | -80.09846 | 30119 ft | 411 kts | 292° |
| 2026-04-14 06:23 | 22.55829 | -80.15611 | 30125 ft | 411 kts | 292° |
| 2026-04-14 06:24 | 22.57919 | -80.21360 | 30126 ft | 411 kts | 292° |
| 2026-04-14 06:24 | 22.59991 | -80.27086 | 30124 ft | 411 kts | 292° |
| 2026-04-14 06:25 | 22.62072 | -80.32851 | 30122 ft | 411 kts | 292° |
| 2026-04-14 06:25 | 22.64160 | -80.38606 | 30120 ft | 411 kts | 292° |
| 2026-04-14 06:26 | 22.66239 | -80.44369 | 30121 ft | 411 kts | 292° |
| 2026-04-14 06:26 | 22.68319 | -80.50135 | 30124 ft | 411 kts | 292° |
| 2026-04-14 06:27 | 22.70404 | -80.55903 | 30128 ft | 411 kts | 292° |
| 2026-04-14 06:27 | 22.72494 | -80.61669 | 30123 ft | 411 kts | 292° |
| 2026-04-14 06:28 | 22.74589 | -80.67430 | 30130 ft | 411 kts | 292° |
| 2026-04-14 06:28 | 22.76682 | -80.73166 | 30129 ft | 411 kts | 292° |
| 2026-04-14 06:29 | 22.78753 | -80.78955 | 30131 ft | 411 kts | 292° |
| 2026-04-14 06:29 | 22.80826 | -80.84751 | 30130 ft | 412 kts | 292° |
| 2026-04-14 06:30 | 22.82885 | -80.90516 | 30134 ft | 412 kts | 292° |
| 2026-04-14 06:30 | 22.84958 | -80.96322 | 30134 ft | 412 kts | 291° |
| 2026-04-14 06:31 | 22.87012 | -81.02088 | 30126 ft | 412 kts | 291° |
| 2026-04-14 06:31 | 22.89079 | -81.07898 | 30136 ft | 412 kts | 291° |
| 2026-04-14 06:32 | 22.91105 | -81.13587 | 30138 ft | 413 kts | 291° |
| 2026-04-14 06:32 | 22.93165 | -81.19399 | 30144 ft | 413 kts | 291° |
| 2026-04-14 06:33 | 22.95228 | -81.25217 | 30147 ft | 413 kts | 291° |
| 2026-04-14 06:33 | 22.97295 | -81.31036 | 30151 ft | 413 kts | 291° |
| 2026-04-14 06:34 | 23.00395 | -81.39779 | 30154 ft | 414 kts | 289° |
| 2026-04-14 06:34 | 23.01012 | -81.42832 | 30155 ft | 416 kts | 277° |
| 2026-04-14 06:34 | 23.00971 | -81.45935 | 30166 ft | 418 kts | 265° |
| 2026-04-14 06:35 | 22.99377 | -81.52034 | 30174 ft | 423 kts | 250° |
| 2026-04-14 06:35 | 22.96876 | -81.57843 | 30161 ft | 425 kts | 246° |
| 2026-04-14 06:36 | 22.94177 | -81.63561 | 30143 ft | 426 kts | 245° |
| 2026-04-14 06:36 | 22.91504 | -81.69286 | 30136 ft | 426 kts | 246° |
| 2026-04-14 06:37 | 22.88881 | -81.75050 | 30143 ft | 426 kts | 246° |
| 2026-04-14 06:37 | 22.86258 | -81.80779 | 30129 ft | 426 kts | 246° |